createdAt,value
2022-11-23T00:00:12.387Z,3.70
2022-11-23T00:02:34.799Z,2.23
2022-11-23T00:04:57.054Z,3.10
2022-11-23T00:07:19.354Z,3.33
2022-11-23T00:09:41.664Z,3.83
2022-11-23T00:12:03.935Z,3.50
2022-11-23T00:14:26.200Z,3.30
2022-11-23T00:16:48.399Z,3.47
2022-11-23T00:19:10.641Z,3.43
2022-11-23T00:21:33.575Z,3.63
2022-11-23T00:23:55.977Z,3.80
2022-11-23T00:26:18.643Z,3.30
2022-11-23T00:28:42.082Z,2.67
2022-11-23T00:31:04.399Z,3.80
2022-11-23T00:33:26.669Z,2.97
2022-11-23T00:35:48.963Z,3.73
2022-11-23T00:38:11.253Z,3.13
2022-11-23T00:40:33.468Z,3.20
2022-11-23T00:42:55.699Z,3.00
2022-11-23T00:45:18.176Z,3.33
2022-11-23T00:47:40.450Z,2.93
2022-11-23T00:50:03.141Z,3.67
2022-11-23T00:52:25.400Z,4.13
2022-11-23T00:54:47.572Z,4.10
2022-11-23T00:57:09.883Z,3.07
2022-11-23T00:59:32.440Z,3.57
2022-11-23T01:01:55.888Z,4.20
2022-11-23T01:04:18.121Z,3.20
2022-11-23T01:06:41.009Z,3.83
2022-11-23T01:09:05.599Z,3.57
2022-11-23T01:11:28.893Z,3.40
2022-11-23T01:13:51.519Z,3.50
2022-11-23T01:16:23.846Z,3.27
2022-11-23T01:18:46.812Z,3.07
2022-11-23T01:21:09.167Z,4.50
2022-11-23T01:23:33.747Z,3.60
2022-11-23T01:25:57.145Z,3.43
2022-11-23T01:28:19.599Z,3.73
2022-11-23T01:30:42.051Z,3.63
2022-11-23T01:33:04.581Z,3.20
2022-11-23T01:35:26.908Z,3.73
2022-11-23T01:37:49.161Z,3.17
2022-11-23T01:40:11.672Z,3.77
2022-11-23T01:42:41.108Z,3.97
2022-11-23T01:45:22.449Z,3.60
2022-11-23T01:47:47.447Z,3.50
2022-11-23T01:50:09.743Z,3.17
2022-11-23T01:52:32.019Z,3.17
2022-11-23T01:54:56.546Z,3.67
2022-11-23T01:57:21.528Z,3.23
2022-11-23T01:59:43.802Z,4.47
2022-11-23T02:02:06.297Z,3.57
2022-11-23T02:04:31.960Z,3.93
2022-11-23T02:06:55.171Z,3.93
2022-11-23T02:09:17.879Z,4.43
2022-11-23T02:11:40.159Z,3.70
2022-11-23T02:14:02.388Z,3.43
2022-11-23T02:16:25.449Z,3.30
2022-11-23T02:18:48.923Z,3.90
2022-11-23T02:21:11.126Z,3.17
2022-11-23T02:23:35.715Z,3.37
2022-11-23T02:26:03.296Z,3.43
2022-11-23T02:28:30.548Z,3.00
2022-11-23T02:30:54.487Z,3.33
2022-11-23T02:33:18.809Z,3.43
2022-11-23T02:35:57.295Z,3.87
2022-11-23T02:38:20.062Z,3.27
2022-11-23T02:40:42.332Z,3.80
2022-11-23T02:43:04.701Z,2.90
2022-11-23T02:45:42.023Z,3.87
2022-11-23T02:48:04.713Z,3.63
2022-11-23T02:50:26.955Z,3.00
2022-11-23T02:52:49.212Z,3.80
2022-11-23T02:55:11.604Z,3.23
2022-11-23T02:57:33.952Z,3.10
2022-11-23T02:59:56.180Z,4.20
2022-11-23T03:02:18.434Z,3.73
2022-11-23T03:04:40.669Z,3.77
2022-11-23T03:07:02.861Z,3.93
2022-11-23T03:09:26.328Z,3.67
2022-11-23T03:11:48.844Z,4.10
2022-11-23T03:14:11.223Z,3.73
2022-11-23T03:16:43.043Z,3.97
2022-11-23T03:19:05.990Z,4.17
2022-11-23T03:21:28.524Z,3.23
2022-11-23T03:23:50.733Z,4.00
2022-11-23T03:26:13.467Z,3.50
2022-11-23T03:28:45.470Z,3.30
2022-11-23T03:31:09.008Z,4.23
2022-11-23T03:33:32.876Z,3.63
2022-11-23T03:35:56.278Z,2.70
2022-11-23T03:38:22.681Z,4.30
2022-11-23T03:40:46.175Z,4.83
2022-11-23T03:43:17.145Z,4.40
2022-11-23T03:45:39.498Z,4.43
2022-11-23T03:48:01.992Z,3.40
2022-11-23T03:50:26.114Z,3.43
2022-11-23T03:52:51.734Z,4.00
2022-11-23T03:55:13.981Z,3.50
2022-11-23T03:57:36.184Z,3.57
2022-11-23T04:00:00.265Z,3.57
2022-11-23T04:02:22.507Z,3.47
2022-11-23T04:04:58.531Z,4.83
2022-11-23T04:07:43.854Z,3.30
2022-11-23T04:10:06.489Z,3.40
2022-11-23T04:12:50.880Z,3.27
2022-11-23T04:15:13.557Z,3.20
2022-11-23T04:17:36.875Z,3.13
2022-11-23T04:19:59.180Z,3.50
2022-11-23T04:22:21.557Z,3.20
2022-11-23T04:24:44.164Z,3.80
2022-11-23T04:27:06.579Z,3.33
2022-11-23T04:29:28.764Z,3.93
2022-11-23T04:31:51.900Z,4.47
2022-11-23T04:34:15.066Z,3.57
2022-11-23T04:36:38.167Z,4.27
2022-11-23T04:39:01.313Z,3.50
2022-11-23T04:41:31.929Z,3.33
2022-11-23T04:43:54.844Z,3.60
2022-11-23T04:46:18.625Z,3.13
2022-11-23T04:48:41.309Z,3.47
2022-11-23T04:51:03.554Z,3.50
2022-11-23T04:53:32.550Z,3.63
2022-11-23T04:55:55.707Z,3.57
2022-11-23T04:58:18.427Z,3.40
2022-11-23T05:00:44.526Z,3.77
2022-11-23T05:03:08.463Z,4.20
2022-11-23T05:05:32.369Z,4.17
2022-11-23T05:07:55.735Z,3.57
2022-11-23T05:10:21.107Z,3.53
2022-11-23T05:12:43.825Z,3.27
2022-11-23T05:15:07.424Z,3.00
2022-11-23T05:17:34.180Z,3.43
2022-11-23T05:19:56.516Z,3.93
2022-11-23T05:22:19.895Z,3.50
2022-11-23T05:24:42.752Z,4.00
2022-11-23T05:27:11.881Z,3.50
2022-11-23T05:29:34.495Z,3.07
2022-11-23T05:31:56.963Z,3.60
2022-11-23T05:34:19.218Z,3.97
2022-11-23T05:36:42.655Z,4.23
2022-11-23T05:39:05.467Z,4.23
2022-11-23T05:41:28.159Z,3.83
2022-11-23T05:43:53.358Z,4.03
2022-11-23T05:46:20.154Z,4.57
2022-11-23T05:48:45.293Z,4.57
2022-11-23T05:51:08.723Z,4.30
2022-11-23T05:53:34.757Z,3.60
2022-11-23T05:56:10.257Z,4.20
2022-11-23T05:58:41.983Z,4.23
2022-11-23T06:01:04.811Z,4.00
2022-11-23T06:03:30.897Z,3.70
2022-11-23T06:05:53.429Z,4.67
2022-11-23T06:08:22.998Z,3.90
2022-11-23T06:10:45.269Z,4.30
2022-11-23T06:13:07.680Z,4.50
2022-11-23T06:15:30.730Z,4.20
2022-11-23T06:17:52.978Z,4.57
2022-11-23T06:20:17.343Z,4.37
2022-11-23T06:22:52.119Z,5.23
2022-11-23T06:25:15.188Z,4.63
2022-11-23T06:27:56.659Z,4.40
2022-11-23T06:30:25.124Z,4.77
2022-11-23T06:32:48.122Z,4.60
2022-11-23T06:35:12.069Z,4.47
2022-11-23T06:37:41.310Z,3.90
2022-11-23T06:40:05.251Z,4.00
2022-11-23T06:42:38.853Z,5.47
2022-11-23T06:45:12.828Z,4.87
2022-11-23T06:47:36.438Z,4.70
2022-11-23T06:50:00.161Z,5.57
2022-11-23T06:52:24.905Z,5.20
2022-11-23T06:54:47.951Z,5.63
2022-11-23T06:57:13.333Z,5.13
2022-11-23T06:59:39.457Z,5.13
2022-11-23T07:04:53.632Z,5.37
2022-11-23T07:07:18.902Z,4.73
2022-11-23T07:10:02.650Z,5.33
2022-11-23T07:12:34.086Z,5.23
2022-11-23T07:15:04.335Z,5.30
2022-11-23T07:17:34.785Z,5.57
2022-11-23T07:20:00.296Z,4.80
2022-11-23T07:22:22.747Z,4.53
2022-11-23T07:24:50.319Z,4.80
2022-11-23T07:27:13.022Z,5.67
2022-11-23T07:29:35.562Z,5.40
2022-11-23T07:31:58.334Z,5.07
2022-11-23T07:34:21.999Z,5.27
2022-11-23T07:36:44.757Z,5.40
2022-11-23T07:39:18.202Z,5.40
2022-11-23T07:41:40.771Z,5.67
2022-11-23T07:44:13.858Z,5.80
2022-11-23T07:46:36.751Z,6.50
2022-11-23T07:49:02.437Z,6.33
2022-11-23T07:51:27.833Z,6.07
2022-11-23T07:53:55.847Z,5.77
2022-11-23T07:56:21.618Z,5.30
2022-11-23T07:58:44.372Z,5.13
2022-11-23T08:01:09.291Z,4.70
2022-11-23T08:03:42.449Z,5.10
2022-11-23T08:06:06.742Z,4.40
2022-11-23T08:08:39.649Z,5.10
2022-11-23T08:11:07.889Z,4.83
2022-11-23T08:13:33.205Z,4.77
2022-11-23T08:15:56.237Z,5.30
2022-11-23T08:18:18.777Z,4.87
2022-11-23T08:20:45.920Z,5.27
2022-11-23T08:23:09.638Z,4.50
2022-11-23T08:25:32.249Z,4.93
2022-11-23T08:28:01.990Z,5.87
2022-11-23T08:30:24.260Z,5.40
2022-11-23T08:32:46.668Z,5.43
2022-11-23T08:35:08.891Z,5.50
2022-11-23T08:37:31.347Z,6.00
2022-11-23T08:39:53.636Z,5.70
2022-11-23T08:42:15.978Z,6.17
2022-11-23T08:44:38.279Z,5.87
2022-11-23T08:47:01.398Z,6.67
2022-11-23T08:49:23.753Z,6.43
2022-11-23T08:51:50.052Z,6.23
2022-11-23T08:54:12.699Z,6.40
2022-11-23T08:56:35.103Z,6.63
2022-11-23T08:58:57.426Z,6.90
2022-11-23T09:01:19.824Z,6.83
2022-11-23T09:03:42.631Z,6.53
2022-11-23T09:06:04.933Z,7.07
2022-11-23T09:08:27.144Z,6.93
2022-11-23T09:10:49.329Z,6.33
2022-11-23T09:13:11.620Z,7.13
2022-11-23T09:15:33.828Z,6.17
2022-11-23T09:17:56.971Z,7.07
2022-11-23T09:20:19.343Z,5.97
2022-11-23T09:22:41.631Z,6.37
2022-11-23T09:25:04.380Z,8.17
2022-11-23T09:27:26.719Z,6.37
2022-11-23T09:29:48.990Z,6.13
2022-11-23T09:32:11.328Z,6.80
2022-11-23T09:34:33.799Z,6.60
2022-11-23T09:36:58.050Z,7.30
2022-11-23T09:39:20.361Z,7.97
2022-11-23T09:41:51.755Z,6.13
2022-11-23T09:44:34.504Z,6.27
2022-11-23T09:47:19.891Z,6.57
2022-11-23T09:49:48.820Z,6.77
2022-11-23T09:52:15.950Z,6.40
2022-11-23T09:54:38.607Z,5.93
2022-11-23T09:57:02.084Z,5.70
2022-11-23T09:59:30.517Z,5.60
2022-11-23T10:01:52.765Z,5.87
2022-11-23T10:04:19.451Z,5.93
2022-11-23T10:06:44.047Z,5.63
2022-11-23T10:09:24.283Z,5.07
2022-11-23T10:11:49.296Z,5.60
2022-11-23T10:14:20.562Z,5.13
2022-11-23T10:16:48.759Z,5.33
2022-11-23T10:19:16.863Z,5.33
2022-11-23T10:21:59.834Z,5.33
2022-11-23T10:24:28.541Z,5.13
2022-11-23T10:26:50.798Z,4.93
2022-11-23T10:29:28.120Z,4.33
2022-11-23T10:31:56.678Z,5.13
2022-11-23T10:34:25.132Z,5.00
2022-11-23T10:36:47.388Z,5.20
2022-11-23T10:39:23.094Z,4.77
2022-11-23T10:41:46.509Z,4.50
2022-11-23T10:44:20.987Z,4.83
2022-11-23T10:46:44.499Z,5.07
2022-11-23T10:49:11.587Z,4.40
2022-11-23T10:51:34.417Z,4.30
2022-11-23T10:54:02.086Z,4.50
2022-11-23T10:56:27.523Z,4.07
2022-11-23T10:58:50.134Z,4.30
2022-11-23T11:01:17.776Z,3.83
2022-11-23T11:03:40.205Z,4.87
2022-11-23T11:06:11.253Z,4.60
2022-11-23T11:08:35.388Z,3.60
2022-11-23T11:11:00.366Z,4.00
2022-11-23T11:13:25.196Z,4.10
2022-11-23T11:15:54.265Z,3.67
2022-11-23T11:18:20.261Z,3.57
2022-11-23T11:20:46.590Z,3.40
2022-11-23T11:23:19.668Z,3.63
2022-11-23T11:25:42.636Z,3.23
2022-11-23T11:28:07.210Z,2.77
2022-11-23T11:30:35.188Z,3.53
2022-11-23T11:33:08.389Z,2.57
2022-11-23T11:35:33.291Z,2.87
2022-11-23T11:37:58.799Z,2.80
2022-11-23T11:40:43.400Z,2.93
2022-11-23T11:43:08.109Z,2.27
2022-11-23T11:45:34.462Z,2.57
2022-11-23T11:48:05.210Z,2.53
2022-11-23T11:50:33.575Z,2.60
2022-11-23T11:52:59.289Z,2.50
2022-11-23T11:55:31.435Z,2.70
2022-11-23T11:57:56.912Z,2.00
2022-11-23T12:00:20.417Z,2.13
2022-11-23T12:03:02.096Z,1.97
2022-11-23T12:05:31.322Z,2.80
2022-11-23T12:08:01.655Z,1.90
2022-11-23T12:10:33.260Z,1.90
2022-11-23T12:12:56.837Z,1.93
2022-11-23T12:15:47.671Z,1.67
2022-11-23T12:18:29.575Z,1.70
2022-11-23T12:20:58.823Z,1.70
2022-11-23T12:23:30.713Z,1.80
2022-11-23T12:26:07.659Z,1.87
2022-11-23T12:28:36.890Z,1.63
2022-11-23T12:31:09.388Z,2.03
2022-11-23T12:33:44.817Z,2.20
2022-11-23T12:36:20.666Z,1.80
2022-11-23T12:39:11.060Z,1.77
2022-11-23T12:41:36.956Z,2.13
2022-11-23T12:44:02.293Z,1.73
2022-11-23T12:46:41.389Z,2.03
2022-11-23T12:49:07.227Z,1.57
2022-11-23T12:51:38.266Z,2.00
2022-11-23T12:54:14.060Z,1.70
2022-11-23T12:56:45.908Z,2.10
2022-11-23T12:59:10.882Z,2.33
2022-11-23T13:01:40.701Z,2.20
2022-11-23T13:04:21.359Z,1.87
2022-11-23T13:06:59.367Z,1.93
2022-11-23T13:09:29.486Z,2.20
2022-11-23T13:12:20.795Z,1.93
2022-11-23T13:15:02.126Z,2.00
2022-11-23T13:17:44.224Z,1.63
2022-11-23T13:20:16.034Z,1.50
2022-11-23T13:22:39.699Z,1.97
2022-11-23T13:25:19.748Z,1.97
2022-11-23T13:27:54.578Z,2.50
2022-11-23T13:30:45.523Z,2.00
2022-11-23T13:33:25.423Z,2.27
2022-11-23T13:35:53.328Z,1.83
2022-11-23T13:38:24.996Z,1.83
2022-11-23T13:40:47.406Z,1.73
2022-11-23T13:43:10.133Z,2.53
2022-11-23T13:45:39.189Z,1.90
2022-11-23T13:48:34.229Z,2.23
2022-11-23T13:51:01.242Z,1.90
2022-11-23T13:53:45.531Z,1.83
2022-11-23T13:56:17.493Z,2.20
2022-11-23T13:58:40.753Z,2.03
2022-11-23T14:01:03.613Z,2.23
2022-11-23T14:03:44.430Z,1.93
2022-11-23T14:06:16.008Z,1.70
2022-11-23T14:08:40.411Z,1.90
2022-11-23T14:11:13.904Z,2.07
2022-11-23T14:13:36.441Z,2.23
2022-11-23T14:16:03.427Z,2.57
2022-11-23T14:18:44.753Z,2.13
2022-11-23T14:21:36.274Z,1.97
2022-11-23T14:24:01.989Z,2.10
2022-11-23T14:26:39.499Z,2.00
2022-11-23T14:29:15.928Z,1.90
2022-11-23T14:31:50.198Z,2.70
2022-11-23T14:34:21.682Z,2.40
2022-11-23T14:37:02.927Z,2.17
2022-11-23T14:39:28.618Z,2.10
2022-11-23T14:41:55.721Z,2.60
2022-11-23T14:44:18.391Z,2.27
2022-11-23T14:47:00.448Z,2.57
2022-11-23T14:49:26.002Z,2.70
2022-11-23T14:51:49.944Z,2.00
2022-11-23T14:54:19.288Z,2.30
2022-11-23T14:56:52.952Z,2.27
2022-11-23T14:59:18.377Z,2.67
2022-11-23T15:01:42.466Z,2.07
2022-11-23T15:04:12.034Z,2.17
2022-11-23T15:06:37.628Z,2.37
2022-11-23T15:09:07.707Z,2.13
2022-11-23T15:11:31.028Z,2.00
2022-11-23T15:14:10.822Z,2.37
2022-11-23T15:16:42.516Z,2.33
2022-11-23T15:19:17.817Z,2.03
2022-11-23T15:21:41.024Z,2.50
2022-11-23T15:24:03.410Z,2.80
2022-11-23T15:29:32.324Z,2.73
2022-11-23T15:32:22.244Z,2.30
2022-11-23T15:34:41.056Z,2.47
2022-11-23T15:37:03.690Z,2.63
2022-11-23T15:39:26.193Z,2.60
2022-11-23T15:41:49.160Z,3.10
2022-11-23T15:44:25.629Z,3.00
2022-11-23T15:46:50.654Z,2.57
2022-11-23T15:49:14.836Z,2.70
2022-11-23T15:51:41.603Z,2.93
2022-11-23T15:54:03.955Z,3.00
2022-11-23T15:56:31.279Z,3.07
2022-11-23T15:58:54.452Z,2.80
2022-11-23T16:01:16.993Z,2.50
2022-11-23T16:03:58.220Z,2.97
2022-11-23T16:06:34.203Z,3.10
2022-11-23T16:08:56.472Z,3.27
2022-11-23T16:11:37.505Z,3.17
2022-11-23T16:14:12.670Z,2.77
2022-11-23T16:16:35.189Z,3.10
2022-11-23T16:19:03.269Z,3.30
2022-11-23T16:21:25.668Z,3.03
2022-11-23T16:23:54.064Z,3.67
2022-11-23T16:26:19.297Z,3.33
2022-11-23T16:28:49.249Z,2.87
2022-11-23T16:31:30.319Z,4.40
2022-11-23T16:33:52.575Z,3.47
2022-11-23T16:36:14.998Z,3.37
2022-11-23T16:38:37.444Z,3.23
2022-11-23T16:40:59.763Z,3.77
2022-11-23T16:43:22.112Z,3.50
2022-11-23T16:45:48.528Z,3.90
2022-11-23T16:48:26.187Z,4.33
2022-11-23T16:50:48.707Z,3.67
2022-11-23T16:53:13.816Z,4.67
2022-11-23T16:55:42.272Z,4.93
2022-11-23T16:58:06.062Z,5.60
2022-11-23T17:00:32.701Z,5.50
2022-11-23T17:02:55.393Z,5.23
2022-11-23T17:05:19.029Z,5.13
2022-11-23T17:07:41.460Z,4.87
2022-11-23T17:10:04.002Z,5.20
2022-11-23T17:12:26.385Z,5.30
2022-11-23T17:14:49.501Z,6.20
2022-11-23T17:17:13.247Z,6.10
2022-11-23T17:19:35.922Z,6.20
2022-11-23T17:21:58.582Z,5.70
2022-11-23T17:24:23.995Z,6.27
2022-11-23T17:26:47.217Z,7.03
2022-11-23T17:29:19.193Z,7.00
2022-11-23T17:31:43.563Z,6.03
2022-11-23T17:34:05.967Z,6.57
2022-11-23T17:36:31.918Z,7.20
2022-11-23T17:38:58.942Z,7.10
2022-11-23T17:41:21.303Z,7.17
2022-11-23T17:43:52.953Z,8.00
2022-11-23T17:46:20.819Z,7.73
2022-11-23T17:48:43.410Z,6.77
2022-11-23T17:51:05.737Z,6.83
2022-11-23T17:53:28.183Z,6.27
2022-11-23T17:55:52.668Z,6.10
2022-11-23T17:58:15.154Z,5.87
2022-11-23T18:00:38.489Z,5.20
2022-11-23T18:03:00.872Z,4.83
2022-11-23T18:05:23.366Z,5.03
2022-11-23T18:07:45.676Z,5.53
2022-11-23T18:10:08.554Z,4.87
2022-11-23T18:12:30.913Z,4.50
2022-11-23T18:14:53.245Z,4.60
2022-11-23T18:17:22.323Z,4.70
2022-11-23T18:19:45.600Z,4.90
2022-11-23T18:22:08.062Z,4.77
2022-11-23T18:24:30.409Z,5.43
2022-11-23T18:26:55.830Z,4.80
2022-11-23T18:29:18.107Z,5.13
2022-11-23T18:31:40.740Z,5.07
2022-11-23T18:34:05.378Z,4.63
2022-11-23T18:36:27.975Z,5.27
2022-11-23T18:38:50.574Z,5.37
2022-11-23T18:41:16.832Z,4.73
2022-11-23T18:43:39.395Z,6.20
2022-11-23T18:46:05.558Z,5.67
2022-11-23T18:48:28.263Z,5.90
2022-11-23T18:50:51.725Z,5.50
2022-11-23T18:53:17.819Z,5.37
2022-11-23T18:55:40.176Z,5.80
2022-11-23T18:58:02.586Z,5.70
2022-11-23T19:00:27.328Z,6.23
2022-11-23T19:02:53.703Z,5.40
2022-11-23T19:05:16.397Z,5.63
2022-11-23T19:07:38.982Z,5.63
2022-11-23T19:10:01.474Z,5.57
2022-11-23T19:12:24.019Z,5.37
2022-11-23T19:14:49.946Z,5.47
2022-11-23T19:17:21.386Z,4.90
2022-11-23T19:19:45.389Z,4.73
2022-11-23T19:22:07.888Z,5.13
2022-11-23T19:24:30.563Z,5.20
2022-11-23T19:29:29.462Z,4.90
2022-11-23T19:31:54.582Z,5.43
2022-11-23T19:34:17.200Z,5.63
2022-11-23T19:36:40.784Z,5.13
2022-11-23T19:39:04.287Z,5.70
2022-11-23T19:41:30.664Z,5.57
2022-11-23T19:43:54.367Z,6.30
2022-11-23T19:46:17.193Z,5.53
2022-11-23T19:48:40.235Z,4.83
2022-11-23T19:51:02.796Z,4.90
2022-11-23T19:53:29.311Z,6.03
2022-11-23T19:55:53.407Z,6.30
2022-11-23T19:58:16.543Z,5.60
2022-11-23T20:00:39.809Z,5.63
2022-11-23T20:03:03.142Z,6.20
2022-11-23T20:05:25.592Z,5.70
2022-11-23T20:07:48.071Z,6.07
2022-11-23T20:10:10.623Z,5.57
2022-11-23T20:12:33.913Z,5.37
2022-11-23T20:14:56.344Z,4.73
2022-11-23T20:17:18.793Z,5.73
2022-11-23T20:19:41.146Z,5.30
2022-11-23T20:22:04.155Z,5.97
2022-11-23T20:24:26.848Z,5.73
2022-11-23T20:26:49.383Z,5.70
2022-11-23T20:29:13.858Z,6.23
2022-11-23T20:31:37.032Z,5.03
2022-11-23T20:33:59.786Z,4.90
2022-11-23T20:36:23.381Z,5.37
2022-11-23T20:38:45.960Z,5.13
2022-11-23T20:41:15.500Z,4.90
2022-11-23T20:43:37.990Z,4.57
2022-11-23T20:46:00.151Z,4.40
2022-11-23T20:48:22.697Z,4.83
2022-11-23T20:50:45.341Z,5.03
2022-11-23T20:53:07.779Z,5.63
2022-11-23T20:55:33.394Z,4.13
2022-11-23T20:57:55.970Z,4.20
2022-11-23T21:00:19.898Z,4.93
2022-11-23T21:02:42.296Z,4.83
2022-11-23T21:05:04.791Z,5.87
2022-11-23T21:07:28.266Z,4.60
2022-11-23T21:09:50.993Z,4.17
2022-11-23T21:12:32.471Z,4.20
2022-11-23T21:14:55.125Z,4.70
2022-11-23T21:17:17.867Z,4.00
2022-11-23T21:19:40.921Z,4.57
2022-11-23T21:22:04.802Z,4.03
2022-11-23T21:24:27.320Z,3.57
2022-11-23T21:26:50.397Z,4.53
2022-11-23T21:29:13.486Z,3.73
2022-11-23T21:31:36.216Z,3.40
2022-11-23T21:34:05.256Z,4.23
2022-11-23T21:36:27.828Z,3.83
2022-11-23T21:38:50.149Z,4.43
2022-11-23T21:41:14.088Z,5.17
2022-11-23T21:43:36.828Z,3.87
2022-11-23T21:46:00.291Z,4.50
2022-11-23T21:48:22.735Z,4.13
2022-11-23T21:50:46.238Z,4.30
2022-11-23T21:53:08.837Z,3.60
2022-11-23T21:55:31.424Z,3.70
2022-11-23T21:57:53.658Z,4.40
2022-11-23T22:00:16.172Z,3.93
2022-11-23T22:02:38.916Z,3.30
2022-11-23T22:05:01.432Z,4.47
2022-11-23T22:07:23.777Z,3.17
2022-11-23T22:09:46.263Z,4.37
2022-11-23T22:12:08.614Z,3.50
2022-11-23T22:14:31.266Z,3.40
2022-11-23T22:16:55.605Z,7.47
2022-11-23T22:19:18.787Z,7.80
2022-11-23T22:21:42.558Z,4.60
2022-11-23T22:24:05.451Z,3.50
2022-11-23T22:26:28.345Z,3.83
2022-11-23T22:28:51.764Z,3.70
2022-11-23T22:31:15.200Z,3.97
2022-11-23T22:33:38.080Z,4.20
2022-11-23T22:36:01.270Z,4.07
2022-11-23T22:38:23.758Z,3.87
2022-11-23T22:40:49.755Z,4.30
2022-11-23T22:43:12.263Z,4.40
2022-11-23T22:45:37.232Z,3.80
2022-11-23T22:47:59.531Z,3.93
2022-11-23T22:50:22.247Z,3.67
2022-11-23T22:52:44.553Z,3.50
2022-11-23T22:55:07.038Z,4.07
2022-11-23T22:57:29.335Z,4.17
2022-11-23T22:59:53.330Z,3.27
2022-11-23T23:02:15.682Z,4.73
2022-11-23T23:04:37.953Z,3.70
2022-11-23T23:07:00.169Z,3.20
2022-11-23T23:09:22.511Z,3.73
2022-11-23T23:11:44.754Z,3.80
2022-11-23T23:14:07.518Z,4.33
2022-11-23T23:16:30.349Z,3.63
2022-11-23T23:18:54.866Z,3.33
2022-11-23T23:21:18.218Z,4.17
2022-11-23T23:23:42.131Z,3.60
2022-11-23T23:26:04.512Z,4.37
2022-11-23T23:28:27.291Z,3.37
2022-11-23T23:30:49.591Z,3.90
2022-11-23T23:33:13.280Z,3.37
2022-11-23T23:35:36.216Z,4.73
2022-11-23T23:37:58.655Z,4.20
2022-11-23T23:40:20.889Z,3.70
2022-11-23T23:42:43.162Z,3.90
2022-11-23T23:45:05.573Z,4.03
2022-11-23T23:47:28.077Z,3.80
2022-11-23T23:49:50.347Z,3.83
2022-11-23T23:52:12.535Z,3.63
2022-11-23T23:54:35.119Z,4.47
2022-11-23T23:56:57.883Z,3.63
2022-11-23T23:59:20.295Z,3.87
